createdAt,value
2023-02-28T00:01:26.106Z,92.00
2023-02-28T00:03:53.232Z,92.00
2023-02-28T00:06:21.797Z,92.00
2023-02-28T00:08:48.735Z,92.00
2023-02-28T00:11:16.889Z,92.00
2023-02-28T00:13:49.798Z,92.00
2023-02-28T00:16:21.347Z,91.90
2023-02-28T00:18:48.699Z,92.00
2023-02-28T00:21:17.103Z,92.00
2023-02-28T00:23:44.790Z,92.00
2023-02-28T00:26:11.871Z,92.00
2023-02-28T00:28:39.942Z,92.00
2023-02-28T00:31:06.901Z,91.80
2023-02-28T00:33:34.024Z,91.80
2023-02-28T00:36:11.013Z,91.80
2023-02-28T00:38:39.791Z,91.90
2023-02-28T00:41:07.319Z,92.00
2023-02-28T00:43:37.040Z,92.00
2023-02-28T00:46:04.895Z,92.00
2023-02-28T00:48:32.397Z,92.10
2023-02-28T00:50:59.315Z,92.30
2023-02-28T00:53:26.377Z,92.20
2023-02-28T00:55:53.334Z,92.20
2023-02-28T00:58:20.225Z,92.10
2023-02-28T01:00:49.901Z,92.00
2023-02-28T01:03:22.126Z,92.00
2023-02-28T01:05:48.993Z,92.00
2023-02-28T01:08:17.425Z,92.10
2023-02-28T01:10:44.443Z,92.20
2023-02-28T01:13:12.780Z,92.30
2023-02-28T01:15:46.591Z,92.30
2023-02-28T01:18:13.485Z,92.40
2023-02-28T01:20:40.449Z,92.30
2023-02-28T01:23:07.365Z,92.40
2023-02-28T01:25:38.245Z,92.40
2023-02-28T01:28:06.647Z,92.40
2023-02-28T01:30:34.012Z,92.40
2023-02-28T01:33:01.060Z,92.40
2023-02-28T01:35:27.940Z,92.40
2023-02-28T01:37:55.166Z,92.40
2023-02-28T01:40:22.034Z,92.40
2023-02-28T01:42:48.910Z,92.40
2023-02-28T01:45:28.356Z,92.40
2023-02-28T01:48:02.357Z,92.30
2023-02-28T01:50:34.379Z,92.40
2023-02-28T01:53:05.896Z,92.50
2023-02-28T01:55:33.729Z,92.60
2023-02-28T01:58:05.800Z,92.80
2023-02-28T02:00:33.064Z,92.80
2023-02-28T02:03:17.366Z,92.70
2023-02-28T02:05:48.407Z,93.00
2023-02-28T02:08:25.172Z,92.90
2023-02-28T02:10:56.725Z,92.90
2023-02-28T02:14:09.448Z,92.90
2023-02-28T02:17:06.105Z,92.90
2023-02-28T02:20:17.560Z,93.00
2023-02-28T02:23:05.122Z,93.00
2023-02-28T02:26:12.010Z,92.90
2023-02-28T02:29:09.679Z,92.80
2023-02-28T02:32:19.701Z,92.80
2023-02-28T02:35:53.169Z,92.80
2023-02-28T02:38:47.884Z,92.80
2023-02-28T02:41:29.441Z,92.70
2023-02-28T02:44:18.887Z,92.70
2023-02-28T02:46:48.498Z,92.80
2023-02-28T02:49:28.211Z,92.80
2023-02-28T02:51:57.362Z,92.90
2023-02-28T02:54:30.190Z,92.80
2023-02-28T02:57:04.243Z,92.80
2023-02-28T02:59:32.337Z,92.80
2023-02-28T03:02:05.661Z,92.90
2023-02-28T03:04:41.436Z,92.90
2023-02-28T03:07:08.315Z,92.80
2023-02-28T03:09:36.610Z,92.80
2023-02-28T03:12:04.627Z,92.70
2023-02-28T03:14:58.161Z,92.80
2023-02-28T03:17:50.853Z,92.90
2023-02-28T03:20:39.551Z,92.90
2023-02-28T03:23:20.240Z,92.90
2023-02-28T03:26:14.836Z,92.90
2023-02-28T03:28:48.924Z,92.90
2023-02-28T03:31:29.594Z,92.90
2023-02-28T03:34:19.597Z,93.30
2023-02-28T03:36:51.323Z,92.90
2023-02-28T03:39:35.515Z,93.00
2023-02-28T03:42:09.829Z,93.00
2023-02-28T03:44:43.609Z,92.90
2023-02-28T03:47:28.436Z,92.90
2023-02-28T03:50:02.783Z,93.00
2023-02-28T03:52:36.328Z,93.10
2023-02-28T03:55:10.658Z,93.00
2023-02-28T03:58:12.564Z,93.00
2023-02-28T04:00:47.519Z,93.00
2023-02-28T04:03:15.169Z,92.90
2023-02-28T04:05:56.373Z,92.90
2023-02-28T04:08:24.103Z,93.00
2023-02-28T04:11:28.836Z,92.80
2023-02-28T04:13:55.878Z,93.00
2023-02-28T04:16:34.404Z,92.80
2023-02-28T04:19:05.866Z,92.80
2023-02-28T04:21:45.130Z,92.80
2023-02-28T04:24:22.745Z,92.90
2023-02-28T04:26:53.073Z,92.80
2023-02-28T04:29:24.898Z,92.90
2023-02-28T04:31:54.191Z,92.90
2023-02-28T04:34:22.172Z,92.90
2023-02-28T04:37:06.373Z,92.90
2023-02-28T04:39:39.144Z,92.90
2023-02-28T04:42:06.092Z,92.90
2023-02-28T04:44:33.027Z,92.90
2023-02-28T04:46:59.923Z,93.00
2023-02-28T04:49:26.906Z,93.00
2023-02-28T04:51:54.095Z,93.20
2023-02-28T04:54:21.144Z,93.20
2023-02-28T04:56:50.652Z,93.20
2023-02-28T04:59:17.660Z,93.10
2023-02-28T05:01:49.423Z,93.10
2023-02-28T05:04:16.597Z,93.10
2023-02-28T05:06:43.557Z,93.10
2023-02-28T05:09:12.540Z,93.10
2023-02-28T05:11:40.666Z,93.10
2023-02-28T05:14:14.856Z,92.90
2023-02-28T05:16:41.808Z,92.90
2023-02-28T05:19:08.758Z,92.90
2023-02-28T05:21:56.142Z,92.80
2023-02-28T05:24:26.006Z,92.90
2023-02-28T05:26:55.429Z,92.80
2023-02-28T05:29:23.047Z,92.80
2023-02-28T05:31:50.304Z,92.70
2023-02-28T05:34:17.283Z,92.70
2023-02-28T05:36:44.298Z,92.70
2023-02-28T05:39:13.629Z,93.00
2023-02-28T05:41:44.702Z,92.80
2023-02-28T05:44:11.859Z,92.80
2023-02-28T05:46:39.409Z,92.70
2023-02-28T05:49:06.462Z,92.60
2023-02-28T05:51:35.182Z,92.70
2023-02-28T05:54:02.798Z,92.80
2023-02-28T05:56:30.062Z,92.80
2023-02-28T05:58:57.002Z,92.90
2023-02-28T06:01:48.859Z,92.90
2023-02-28T06:04:31.065Z,93.00
2023-02-28T06:06:58.632Z,92.90
2023-02-28T06:09:25.988Z,93.00
2023-02-28T06:11:52.835Z,93.00
2023-02-28T06:14:20.853Z,93.00
2023-02-28T06:16:48.328Z,93.10
2023-02-28T06:19:16.192Z,93.10
2023-02-28T06:21:43.682Z,93.10
2023-02-28T06:24:11.309Z,93.20
2023-02-28T06:26:38.214Z,93.10
2023-02-28T06:29:05.070Z,93.20
2023-02-28T06:31:32.360Z,93.20
2023-02-28T06:33:59.549Z,93.20
2023-02-28T06:36:26.397Z,93.30
2023-02-28T06:38:55.729Z,93.30
2023-02-28T06:41:25.587Z,93.40
2023-02-28T06:43:53.102Z,93.50
2023-02-28T06:46:20.528Z,93.60
2023-02-28T06:48:48.023Z,93.70
2023-02-28T06:51:21.179Z,93.50
2023-02-28T06:53:48.066Z,93.60
2023-02-28T06:56:17.308Z,93.60
2023-02-28T06:58:49.382Z,93.70
2023-02-28T07:01:16.542Z,93.80
2023-02-28T07:03:43.903Z,93.80
2023-02-28T07:06:10.789Z,93.80
2023-02-28T07:08:38.053Z,93.90
2023-02-28T07:11:05.484Z,93.90
2023-02-28T07:13:32.601Z,94.40
2023-02-28T07:16:04.910Z,94.30
2023-02-28T07:18:32.415Z,94.40
2023-02-28T07:21:03.157Z,94.50
2023-02-28T07:23:30.018Z,94.50
2023-02-28T07:25:56.897Z,94.50
2023-02-28T07:28:24.223Z,94.50
2023-02-28T07:30:51.254Z,94.70
2023-02-28T07:33:18.315Z,94.60
2023-02-28T07:35:45.332Z,94.50
2023-02-28T07:38:14.536Z,94.50
2023-02-28T07:40:41.544Z,94.50
2023-02-28T07:43:08.547Z,94.90
2023-02-28T07:45:36.059Z,94.60
2023-02-28T07:48:03.241Z,94.60
2023-02-28T07:50:31.716Z,94.60
2023-02-28T07:53:01.533Z,94.60
2023-02-28T07:55:28.708Z,94.60
2023-02-28T07:57:55.619Z,94.70
2023-02-28T08:00:23.138Z,94.70
2023-02-28T08:02:50.494Z,94.70
2023-02-28T08:05:21.468Z,94.70
2023-02-28T08:07:50.642Z,94.60
2023-02-28T08:10:17.590Z,94.70
2023-02-28T08:12:44.449Z,94.70
2023-02-28T08:15:11.771Z,94.70
2023-02-28T08:17:38.615Z,94.70
2023-02-28T08:20:06.132Z,94.70
2023-02-28T08:22:33.013Z,94.70
2023-02-28T08:24:59.861Z,94.70
2023-02-28T08:27:26.722Z,94.70
2023-02-28T08:29:53.572Z,94.70
2023-02-28T08:32:29.286Z,94.70
2023-02-28T08:34:57.224Z,95.00
2023-02-28T08:37:24.290Z,94.90
2023-02-28T08:39:51.764Z,94.90
2023-02-28T08:42:19.272Z,94.80
2023-02-28T08:44:46.149Z,94.70
2023-02-28T08:47:13.012Z,94.60
2023-02-28T08:49:39.958Z,94.60
2023-02-28T08:52:07.058Z,94.50
2023-02-28T08:54:34.945Z,94.60
2023-02-28T08:57:02.029Z,94.50
2023-02-28T08:59:29.007Z,94.50
2023-02-28T09:01:55.848Z,94.40
2023-02-28T09:04:25.167Z,94.30
2023-02-28T09:06:52.401Z,94.30
2023-02-28T09:09:19.307Z,94.30
2023-02-28T09:11:46.218Z,94.30
2023-02-28T09:14:13.131Z,94.30
2023-02-28T09:16:40.065Z,94.20
2023-02-28T09:19:06.999Z,94.00
2023-02-28T09:21:33.883Z,93.70
2023-02-28T09:24:00.750Z,93.50
2023-02-28T09:26:34.843Z,93.40
2023-02-28T09:29:10.005Z,93.30
2023-02-28T09:31:37.039Z,93.20
2023-02-28T09:34:05.383Z,93.10
2023-02-28T09:36:43.589Z,93.00
2023-02-28T09:39:11.625Z,92.60
2023-02-28T09:41:50.971Z,92.30
2023-02-28T09:44:33.196Z,92.30
2023-02-28T09:47:12.475Z,92.40
2023-02-28T09:49:47.867Z,92.30
2023-02-28T09:52:31.339Z,92.20
2023-02-28T09:55:35.221Z,91.70
2023-02-28T09:58:21.737Z,91.20
2023-02-28T10:00:59.709Z,90.80
2023-02-28T10:03:40.036Z,90.40
2023-02-28T10:06:20.610Z,90.30
2023-02-28T10:09:02.372Z,89.90
2023-02-28T10:11:30.946Z,89.80
2023-02-28T10:14:05.441Z,89.20
2023-02-28T10:16:56.843Z,87.60
2023-02-28T10:19:55.386Z,87.50
2023-02-28T10:22:41.289Z,87.80
2023-02-28T10:25:25.636Z,85.50
2023-02-28T10:28:05.743Z,86.70
2023-02-28T10:30:32.688Z,86.80
2023-02-28T10:32:59.751Z,86.90
2023-02-28T10:35:28.094Z,86.10
2023-02-28T10:38:01.150Z,85.00
2023-02-28T10:40:36.455Z,85.30
2023-02-28T10:43:13.592Z,85.30
2023-02-28T10:45:54.149Z,82.20
2023-02-28T10:48:20.878Z,83.20
2023-02-28T10:50:50.872Z,83.00
2023-02-28T10:53:26.114Z,82.20
2023-02-28T10:56:17.625Z,78.40
2023-02-28T10:59:20.837Z,79.20
2023-02-28T11:01:51.628Z,80.00
2023-02-28T11:04:20.310Z,81.00
2023-02-28T11:06:47.539Z,79.80
2023-02-28T11:09:40.361Z,80.50
2023-02-28T11:12:21.959Z,79.00
2023-02-28T11:14:52.904Z,79.80
2023-02-28T11:17:30.671Z,80.30
2023-02-28T11:20:04.151Z,78.10
2023-02-28T11:22:39.128Z,78.80
2023-02-28T11:25:20.211Z,78.40
2023-02-28T11:27:51.020Z,78.80
2023-02-28T11:30:42.273Z,78.40
2023-02-28T11:33:33.301Z,77.70
2023-02-28T11:36:09.460Z,76.40
2023-02-28T11:38:37.506Z,77.20
2023-02-28T11:41:30.590Z,76.80
2023-02-28T11:44:33.863Z,76.70
2023-02-28T11:47:21.266Z,77.90
2023-02-28T11:50:28.107Z,77.00
2023-02-28T11:53:41.548Z,76.40
2023-02-28T11:56:32.503Z,77.40
2023-02-28T11:59:42.569Z,77.00
2023-02-28T12:02:29.203Z,76.00
2023-02-28T12:05:31.165Z,75.70
2023-02-28T12:08:40.934Z,74.90
2023-02-28T12:11:53.271Z,76.60
2023-02-28T12:14:51.125Z,75.90
2023-02-28T12:17:35.868Z,76.00
2023-02-28T12:20:36.895Z,75.70
2023-02-28T12:23:42.767Z,74.90
2023-02-28T12:26:27.887Z,76.30
2023-02-28T12:29:03.523Z,75.60
2023-02-28T12:31:39.960Z,74.60
2023-02-28T12:34:22.890Z,74.30
2023-02-28T12:36:52.853Z,75.00
2023-02-28T12:39:48.355Z,74.80
2023-02-28T12:42:31.417Z,74.50
2023-02-28T12:45:03.678Z,73.10
2023-02-28T12:47:30.515Z,73.20
2023-02-28T12:50:09.032Z,73.30
2023-02-28T12:53:13.314Z,72.60
2023-02-28T12:55:51.439Z,72.90
2023-02-28T12:58:51.072Z,73.70
2023-02-28T13:01:39.786Z,72.90
2023-02-28T13:04:45.323Z,71.30
2023-02-28T13:07:40.107Z,71.80
2023-02-28T13:10:08.705Z,71.90
2023-02-28T13:12:36.762Z,70.20
2023-02-28T13:15:22.147Z,72.00
2023-02-28T13:17:55.177Z,72.20
2023-02-28T13:20:27.161Z,71.50
2023-02-28T13:22:56.134Z,70.00
2023-02-28T13:25:22.892Z,71.70
2023-02-28T13:27:57.213Z,70.90
2023-02-28T13:30:52.061Z,71.40
2023-02-28T13:33:30.742Z,70.40
2023-02-28T13:36:14.412Z,68.20
2023-02-28T13:38:49.962Z,68.60
2023-02-28T13:41:35.372Z,68.70
2023-02-28T13:44:15.991Z,67.10
2023-02-28T13:46:49.514Z,68.90
2023-02-28T13:49:34.878Z,69.20
2023-02-28T13:52:08.019Z,69.20
2023-02-28T13:55:14.400Z,67.90
2023-02-28T13:58:15.990Z,68.40
2023-02-28T14:01:05.611Z,68.40
2023-02-28T14:04:13.579Z,69.40
2023-02-28T14:06:51.570Z,68.50
2023-02-28T14:09:34.022Z,67.10
2023-02-28T14:12:52.408Z,66.60
2023-02-28T14:15:47.223Z,68.50
2023-02-28T14:18:28.309Z,67.30
2023-02-28T14:21:11.042Z,67.30
2023-02-28T14:24:34.237Z,66.10
2023-02-28T14:27:18.430Z,66.50
2023-02-28T14:30:35.256Z,65.10
2023-02-28T14:33:06.912Z,66.40
2023-02-28T14:36:01.589Z,67.00
2023-02-28T14:38:37.976Z,66.80
2023-02-28T14:41:40.160Z,65.40
2023-02-28T14:44:22.449Z,65.50
2023-02-28T14:47:06.655Z,63.80
2023-02-28T14:49:43.867Z,63.80
2023-02-28T14:52:10.808Z,65.50
2023-02-28T14:54:41.504Z,64.70
2023-02-28T14:57:26.145Z,64.10
2023-02-28T15:00:04.889Z,62.30
2023-02-28T15:02:36.043Z,61.00
2023-02-28T15:05:28.120Z,62.50
2023-02-28T15:08:16.095Z,62.70
2023-02-28T15:10:59.560Z,63.40
2023-02-28T15:13:41.620Z,63.90
2023-02-28T15:16:26.752Z,63.00
2023-02-28T15:19:00.251Z,63.50
2023-02-28T15:21:37.289Z,63.70
2023-02-28T15:24:09.168Z,64.20
2023-02-28T15:26:41.216Z,64.80
2023-02-28T15:29:16.543Z,64.90
2023-02-28T15:31:58.058Z,65.20
2023-02-28T15:34:43.380Z,65.10
2023-02-28T15:37:33.436Z,65.00
2023-02-28T15:40:24.779Z,65.10
2023-02-28T15:43:10.353Z,65.00
2023-02-28T15:45:41.886Z,63.70
2023-02-28T15:48:26.807Z,65.00
2023-02-28T15:51:13.302Z,64.20
2023-02-28T15:53:52.141Z,65.00
2023-02-28T15:56:32.617Z,64.80
2023-02-28T15:59:06.515Z,64.20
2023-02-28T16:01:36.935Z,64.60
2023-02-28T16:04:17.407Z,65.20
2023-02-28T16:06:46.518Z,65.30
2023-02-28T16:09:17.836Z,65.50
2023-02-28T16:11:49.656Z,65.60
2023-02-28T16:14:21.828Z,65.70
2023-02-28T16:16:56.510Z,65.80
2023-02-28T16:19:24.782Z,66.00
2023-02-28T16:21:52.131Z,66.20
2023-02-28T16:24:19.151Z,66.30
2023-02-28T16:26:52.495Z,66.20
2023-02-28T16:29:30.821Z,66.10
2023-02-28T16:31:58.030Z,66.10
2023-02-28T16:34:25.389Z,66.50
2023-02-28T16:36:52.479Z,66.60
2023-02-28T16:39:21.641Z,67.10
2023-02-28T16:41:50.191Z,66.00
2023-02-28T16:44:31.086Z,66.60
2023-02-28T16:46:58.017Z,66.70
2023-02-28T16:49:25.442Z,67.20
2023-02-28T16:51:52.364Z,67.50
2023-02-28T16:54:19.236Z,67.70
2023-02-28T16:56:49.024Z,67.80
2023-02-28T16:59:23.272Z,68.20
2023-02-28T17:01:50.849Z,68.50
2023-02-28T17:04:17.877Z,68.60
2023-02-28T17:06:44.950Z,68.80
2023-02-28T17:09:28.308Z,69.00
2023-02-28T17:11:57.805Z,69.20
2023-02-28T17:14:24.733Z,69.10
2023-02-28T17:16:51.860Z,69.10
2023-02-28T17:19:19.140Z,69.20
2023-02-28T17:21:47.490Z,69.50
2023-02-28T17:24:28.882Z,69.80
2023-02-28T17:26:57.387Z,70.10
2023-02-28T17:29:25.347Z,70.30
2023-02-28T17:31:52.441Z,70.40
2023-02-28T17:34:20.572Z,70.70
2023-02-28T17:36:49.445Z,70.90
2023-02-28T17:39:25.089Z,71.20
2023-02-28T17:41:53.882Z,71.50
2023-02-28T17:44:22.263Z,71.60
2023-02-28T17:46:50.440Z,71.70
2023-02-28T17:49:21.032Z,71.90
2023-02-28T17:51:48.628Z,72.10
2023-02-28T17:54:18.217Z,72.40
2023-02-28T17:56:45.974Z,72.50
2023-02-28T17:59:13.734Z,72.60
2023-02-28T18:01:40.810Z,72.80
2023-02-28T18:04:07.738Z,73.00
2023-02-28T18:06:47.441Z,73.20
2023-02-28T18:09:22.505Z,73.40
2023-02-28T18:11:54.329Z,73.60
2023-02-28T18:14:24.965Z,73.60
2023-02-28T18:16:53.676Z,73.80
2023-02-28T18:19:21.190Z,74.00
2023-02-28T18:21:51.898Z,74.20
2023-02-28T18:24:21.763Z,74.50
2023-02-28T18:26:48.679Z,74.70
2023-02-28T18:29:27.610Z,74.80
2023-02-28T18:31:56.462Z,75.10
2023-02-28T18:34:24.808Z,75.20
2023-02-28T18:36:53.080Z,75.90
2023-02-28T18:39:20.329Z,75.80
2023-02-28T18:41:47.236Z,76.10
2023-02-28T18:44:19.769Z,76.30
2023-02-28T18:46:48.974Z,76.40
2023-02-28T18:49:16.092Z,76.90
2023-02-28T18:51:45.177Z,76.90
2023-02-28T18:54:13.649Z,77.00
2023-02-28T18:56:40.558Z,77.20
2023-02-28T18:59:07.473Z,77.40
2023-02-28T19:01:34.615Z,77.60
2023-02-28T19:04:03.549Z,77.70
2023-02-28T19:06:32.916Z,78.00
2023-02-28T19:09:02.562Z,78.00
2023-02-28T19:11:29.778Z,78.20
2023-02-28T19:13:57.087Z,78.40
2023-02-28T19:16:24.612Z,78.40
2023-02-28T19:18:51.849Z,78.60
2023-02-28T19:21:21.773Z,78.80
2023-02-28T19:23:49.047Z,79.10
2023-02-28T19:26:20.142Z,79.10
2023-02-28T19:28:47.487Z,79.20
2023-02-28T19:31:19.291Z,79.20
2023-02-28T19:33:46.297Z,79.50
2023-02-28T19:36:14.300Z,79.50
2023-02-28T19:38:42.514Z,79.80
2023-02-28T19:41:11.592Z,80.10
2023-02-28T19:43:39.008Z,80.30
2023-02-28T19:46:07.222Z,80.40
2023-02-28T19:48:34.138Z,80.60
2023-02-28T19:51:04.398Z,80.70
2023-02-28T19:53:33.126Z,81.10
2023-02-28T19:56:00.534Z,81.30
2023-02-28T19:58:28.009Z,81.40
2023-02-28T20:00:54.953Z,81.60
2023-02-28T20:03:22.507Z,81.60
2023-02-28T20:06:07.320Z,81.70
2023-02-28T20:08:34.465Z,82.40
2023-02-28T20:11:10.833Z,82.10
2023-02-28T20:13:38.213Z,83.00
2023-02-28T20:16:09.510Z,82.90
2023-02-28T20:18:37.922Z,83.10
2023-02-28T20:21:05.127Z,83.30
2023-02-28T20:23:32.016Z,83.40
2023-02-28T20:26:00.429Z,83.70
2023-02-28T20:28:27.601Z,84.20
2023-02-28T20:30:54.802Z,84.30
2023-02-28T20:33:22.167Z,84.50
2023-02-28T20:35:49.600Z,84.70
2023-02-28T20:38:16.580Z,85.10
2023-02-28T20:40:43.451Z,85.00
2023-02-28T20:43:10.338Z,85.30
2023-02-28T20:45:37.258Z,85.90
2023-02-28T20:48:04.144Z,86.30
2023-02-28T20:50:31.652Z,86.30
2023-02-28T20:52:58.507Z,86.40
2023-02-28T20:55:25.359Z,86.40
2023-02-28T20:57:54.081Z,86.60
2023-02-28T21:00:22.435Z,86.70
2023-02-28T21:02:49.402Z,86.80
2023-02-28T21:05:17.030Z,87.00
2023-02-28T21:07:43.914Z,87.80
2023-02-28T21:10:11.705Z,87.10
2023-02-28T21:12:38.598Z,87.10
2023-02-28T21:15:05.968Z,87.30
2023-02-28T21:17:32.872Z,87.40
2023-02-28T21:19:59.749Z,88.20
2023-02-28T21:22:26.621Z,88.40
2023-02-28T21:24:53.526Z,88.50
2023-02-28T21:27:20.426Z,88.40
2023-02-28T21:29:47.366Z,88.20
2023-02-28T21:32:14.815Z,88.00
2023-02-28T21:34:41.802Z,88.00
2023-02-28T21:37:08.720Z,88.00
2023-02-28T21:39:35.802Z,87.80
2023-02-28T21:42:03.773Z,87.90
2023-02-28T21:44:32.428Z,88.00
2023-02-28T21:47:02.613Z,88.10
2023-02-28T21:49:30.227Z,87.80
2023-02-28T21:51:57.477Z,88.10
2023-02-28T21:54:24.854Z,88.20
2023-02-28T21:56:52.102Z,87.90
2023-02-28T21:59:20.054Z,87.90
2023-02-28T22:01:49.242Z,87.80
2023-02-28T22:04:22.034Z,87.90
2023-02-28T22:06:52.673Z,88.10
2023-02-28T22:09:20.058Z,88.50
2023-02-28T22:11:47.286Z,88.30
2023-02-28T22:14:14.519Z,88.50
2023-02-28T22:16:51.461Z,88.50
2023-02-28T22:19:20.676Z,88.60
2023-02-28T22:21:47.721Z,88.60
2023-02-28T22:24:17.458Z,88.30
2023-02-28T22:26:44.535Z,88.60
2023-02-28T22:29:11.424Z,88.40
2023-02-28T22:31:38.357Z,88.30
2023-02-28T22:34:08.849Z,88.30
2023-02-28T22:36:36.053Z,88.70
2023-02-28T22:39:05.046Z,89.00
2023-02-28T22:41:32.847Z,89.00
2023-02-28T22:44:03.836Z,89.10
2023-02-28T22:46:33.271Z,89.20
2023-02-28T22:49:05.384Z,89.30
2023-02-28T22:51:32.325Z,89.20
2023-02-28T22:53:59.250Z,89.20
2023-02-28T22:56:28.858Z,89.40
2023-02-28T22:58:59.207Z,89.70
2023-02-28T23:01:30.840Z,89.20
2023-02-28T23:03:58.386Z,89.40
2023-02-28T23:06:35.128Z,89.50
2023-02-28T23:09:06.907Z,89.70
2023-02-28T23:11:43.104Z,90.00
2023-02-28T23:14:13.450Z,90.10
2023-02-28T23:16:48.490Z,90.10
2023-02-28T23:19:23.834Z,90.00
2023-02-28T23:21:51.285Z,89.80
2023-02-28T23:24:21.857Z,89.70
2023-02-28T23:26:51.517Z,89.70
2023-02-28T23:29:20.586Z,89.70
2023-02-28T23:31:48.155Z,90.00
2023-02-28T23:34:17.233Z,90.10
2023-02-28T23:36:46.210Z,90.10
2023-02-28T23:39:15.988Z,90.10
2023-02-28T23:41:42.890Z,90.10
2023-02-28T23:44:13.649Z,90.00
2023-02-28T23:46:40.653Z,90.10
2023-02-28T23:49:07.526Z,90.10
2023-02-28T23:51:34.386Z,90.10
2023-02-28T23:54:02.980Z,90.20
2023-02-28T23:56:31.016Z,90.20
2023-02-28T23:58:59.462Z,90.30
